Time;durP1;ratioP1;P1;durP2;ratioP2;P2;SDS_P1;SDS_P2;PMS_P1;PMS_P2;Temp;Humidity;BMP_temperature;BMP_pressure;BME280_temperature;BME280_humidity;BME280_pressure;Samples;Min_cycle;Max_cycle;Signal;HPM_P1;HPM_P2
2023/01/07 06:26:18;;;;;;;1.27;0.98;;;;;;;;;;3103970;23;20038;-82
2023/01/07 06:28:45;;;;;;;1.98;1.60;;;;;;;;;;4999870;28;20030;-82
2023/01/07 06:31:11;;;;;;;1.30;1.20;;;;;;;;;;5011003;28;20022;-82
2023/01/07 06:33:39;;;;;;;1.17;1.08;;;;;;;;;;5017586;28;20014;-82
2023/01/07 06:36:06;;;;;;;1.05;0.95;;;;;;;;;;5016831;28;20015;-83
2023/01/07 06:38:32;;;;;;;1.10;1.00;;;;;;;;;;4994433;28;20049;-83
2023/01/07 06:40:58;;;;;;;1.40;1.27;;;;;;;;;;5018793;28;20014;-82
2023/01/07 06:43:25;;;;;;;1.48;1.38;;;;;;;;;;4999224;28;20035;-83
2023/01/07 06:45:51;;;;;;;1.40;1.27;;;;;;;;;;5012837;28;20057;-83
2023/01/07 06:48:17;;;;;;;1.17;1.08;;;;;;;;;;5016799;28;20018;-83
2023/01/07 06:50:44;;;;;;;2.38;1.58;;;;;;;;;;5003106;28;20022;-82
2023/01/07 06:53:10;;;;;;;2.25;1.52;;;;;;;;;;5018296;28;20011;-81
2023/01/07 06:55:36;;;;;;;2.22;1.17;;;;;;;;;;5017653;28;20014;-81
2023/01/07 06:58:02;;;;;;;1.50;1.13;;;;;;;;;;5004357;28;20037;-83
2023/01/07 07:00:28;;;;;;;1.58;0.93;;;;;;;;;;5008157;28;20022;-82
2023/01/07 07:03:18;;;;;;;3.17;1.17;;;;;;;;;;4984596;28;20022;-85
2023/01/07 08:04:01;;;;;;;4.25;2.58;;;;;;;;;;5165957;23;20062;-85
2023/01/07 08:06:37;;;;;;;4.72;2.28;;;;;;;;;;4997432;28;20022;-87
2023/01/07 08:15:39;;;;;;;4.75;2.40;;;;;;;;;;4960553;29;20026;-88
2023/01/07 08:18:34;;;;;;;2.70;2.13;;;;;;;;;;4954807;28;20086;-87
2023/01/07 08:21:29;;;;;;;2.55;1.92;;;;;;;;;;4961826;28;20051;-86
2023/01/07 08:23:57;;;;;;;4.03;2.20;;;;;;;;;;4958850;28;20062;-87
2023/01/07 08:26:23;;;;;;;1.95;1.83;;;;;;;;;;4987735;28;20097;-88
2023/01/07 08:28:50;;;;;;;3.40;2.13;;;;;;;;;;4963448;29;20043;-88
2023/01/07 08:31:16;;;;;;;3.55;2.60;;;;;;;;;;4979289;28;20031;-87
2023/01/07 15:17:44;;;;;;;1.00;0.98;;;;;;;;;;4978837;28;20054;-88
2023/01/07 15:20:36;;;;;;;1.42;0.93;;;;;;;;;;4978246;28;20039;-88
2023/01/07 15:23:07;;;;;;;0.60;0.60;;;;;;;;;;4963656;28;20493;-87
2023/01/07 15:25:35;;;;;;;0.90;0.73;;;;;;;;;;4982382;28;20077;-87
2023/01/07 15:28:17;;;;;;;1.38;0.77;;;;;;;;;;4982858;28;20093;-88
2023/01/07 15:30:53;;;;;;;1.33;1.00;;;;;;;;;;4966614;28;20232;-87
2023/01/07 15:33:22;;;;;;;3.38;1.63;;;;;;;;;;4971777;28;20049;-88
2023/01/07 15:35:49;;;;;;;4.72;3.00;;;;;;;;;;4967406;28;20050;-88
2023/01/07 15:38:54;;;;;;;3.47;2.85;;;;;;;;;;4967030;28;20039;-88
2023/01/07 15:44:32;;;;;;;3.35;2.45;;;;;;;;;;4981748;28;20512;-87
2023/01/07 15:47:05;;;;;;;3.33;2.42;;;;;;;;;;4964915;28;20050;-87
2023/01/07 15:49:48;;;;;;;5.85;1.42;;;;;;;;;;4963731;28;20027;-88
2023/01/07 15:52:30;;;;;;;2.75;1.63;;;;;;;;;;4978875;28;20023;-88
2023/01/07 15:55:12;;;;;;;2.25;1.52;;;;;;;;;;4971996;28;20027;-88
2023/01/07 15:57:39;;;;;;;;;;;;;;;;;;4962082;28;20033;-88
2023/01/07 16:00:07;;;;;;;4.22;1.45;;;;;;;;;;4977766;28;19960;-89
2023/01/07 16:02:38;;;;;;;2.15;1.42;;;;;;;;;;4939483;29;20645;-89
2023/01/07 16:05:11;;;;;;;1.77;1.33;;;;;;;;;;4959441;28;20034;-87
2023/01/07 16:07:56;;;;;;;7.45;2.03;;;;;;;;;;4961611;28;20114;-88
2023/01/07 16:10:34;;;;;;;4.32;1.58;;;;;;;;;;4962290;28;20069;-88
2023/01/07 16:13:04;;;;;;;2.10;1.60;;;;;;;;;;4977284;28;20027;-88
2023/01/07 16:28:13;;;;;;;4.07;2.70;;;;;;;;;;4864979;29;20074;-87
2023/01/07 16:31:26;;;;;;;5.15;2.95;;;;;;;;;;4772314;30;20523;-87
2023/01/07 16:40:24;;;;;;;2.90;2.22;;;;;;;;;;4722639;30;20074;-87
2023/01/07 16:43:28;;;;;;;4.63;2.33;;;;;;;;;;4721839;30;20100;-83
2023/01/07 16:58:32;;;;;;;3.78;2.50;;;;;;;;;;4740732;30;20585;-84
2023/01/07 17:01:39;;;;;;;8.35;3.45;;;;;;;;;;4752101;30;20748;-84
2023/01/07 17:07:54;;;;;;;10.27;4.40;;;;;;;;;;4764250;30;20107;-85
2023/01/07 17:10:55;;;;;;;3.67;2.58;;;;;;;;;;4820371;29;20033;-85
2023/01/07 17:13:50;;;;;;;3.85;2.65;;;;;;;;;;4874907;29;20083;-84
2023/01/07 17:20:18;;;;;;;7.55;4.38;;;;;;;;;;4854575;29;20155;-83
2023/01/07 18:38:53;;;;;;;11.38;5.55;;;;;;;;;;4996081;28;20057;-80
2023/01/07 18:41:19;;;;;;;10.50;5.13;;;;;;;;;;4996565;28;20026;-82
2023/01/07 18:43:46;;;;;;;7.57;4.68;;;;;;;;;;4974512;28;20031;-82
2023/01/07 18:46:12;;;;;;;10.18;5.45;;;;;;;;;;4964528;29;20073;-81
2023/01/07 18:48:38;;;;;;;8.65;5.32;;;;;;;;;;4967128;28;20427;-81
2023/01/07 19:04:40;;;;;;;9.23;5.03;;;;;;;;;;4815080;29;20022;-85
2023/01/07 19:25:44;;;;;;;8.38;5.13;;;;;;;;;;4978556;28;20058;-86
2023/01/07 19:28:20;;;;;;;7.72;4.80;;;;;;;;;;4958008;28;20042;-87
2023/01/07 19:30:54;;;;;;;8.63;4.43;;;;;;;;;;4961667;28;20458;-86
2023/01/07 19:39:28;;;;;;;12.60;5.75;;;;;;;;;;4973272;28;20047;-86
2023/01/07 19:42:00;;;;;;;8.68;5.53;;;;;;;;;;4972485;28;20011;-86
2023/01/07 19:44:26;;;;;;;10.20;5.43;;;;;;;;;;4962607;28;20096;-86
2023/01/07 19:47:04;;;;;;;10.80;5.85;;;;;;;;;;4961819;28;20118;-87
2023/01/07 19:49:47;;;;;;;9.30;5.22;;;;;;;;;;4977637;28;20027;-87
2023/01/07 19:52:33;;;;;;;8.98;5.03;;;;;;;;;;4997400;28;20038;-87
2023/01/07 19:55:39;;;;;;;8.07;4.70;;;;;;;;;;4998951;28;20019;-86
2023/01/07 19:58:05;;;;;;;9.02;4.47;;;;;;;;;;4975346;28;20031;-84
2023/01/07 20:00:32;;;;;;;7.47;4.72;;;;;;;;;;4959607;28;20023;-85
2023/01/07 20:02:58;;;;;;;7.38;4.15;;;;;;;;;;4980519;28;20033;-83
2023/01/07 20:05:24;;;;;;;7.15;4.18;;;;;;;;;;4980642;28;20030;-85
2023/01/07 20:07:50;;;;;;;6.65;3.97;;;;;;;;;;4983986;28;20058;-85
2023/01/07 20:10:16;;;;;;;5.55;3.70;;;;;;;;;;4945125;29;20038;-85
2023/01/07 20:12:42;;;;;;;6.40;3.42;;;;;;;;;;4943629;29;20394;-84
2023/01/07 20:15:08;;;;;;;6.03;3.83;;;;;;;;;;4944070;29;20036;-85
2023/01/07 20:17:34;;;;;;;6.72;4.05;;;;;;;;;;4944993;29;20023;-84
2023/01/07 20:20:00;;;;;;;6.72;4.30;;;;;;;;;;4967787;28;20026;-85
2023/01/07 20:22:26;;;;;;;7.75;4.28;;;;;;;;;;4967720;28;20027;-85
2023/01/07 20:24:52;;;;;;;6.65;4.38;;;;;;;;;;4996357;28;20082;-85
2023/01/07 20:27:18;;;;;;;6.78;4.20;;;;;;;;;;4999012;28;20039;-86
2023/01/07 20:29:45;;;;;;;6.60;4.28;;;;;;;;;;4996118;28;20031;-85
2023/01/07 20:32:11;;;;;;;7.75;4.35;;;;;;;;;;4968070;28;20018;-84
2023/01/07 20:34:37;;;;;;;7.15;4.28;;;;;;;;;;4980923;28;20074;-84
2023/01/07 20:37:03;;;;;;;6.50;3.85;;;;;;;;;;4965516;28;20371;-85
2023/01/07 20:39:29;;;;;;;9.25;4.78;;;;;;;;;;4951599;29;20027;-84
2023/01/07 20:41:55;;;;;;;5.57;3.55;;;;;;;;;;4944152;29;20550;-85
2023/01/07 20:44:22;;;;;;;6.93;4.05;;;;;;;;;;4959806;28;20043;-86
2023/01/07 20:46:48;;;;;;;6.25;3.85;;;;;;;;;;4959695;28;20023;-86
2023/01/07 20:49:14;;;;;;;6.97;4.10;;;;;;;;;;4969072;28;20034;-84
2023/01/07 20:51:40;;;;;;;7.43;4.18;;;;;;;;;;4980244;28;20050;-85
2023/01/07 20:54:07;;;;;;;4.63;3.03;;;;;;;;;;4961856;28;20023;-84
2023/01/07 20:56:33;;;;;;;7.95;3.35;;;;;;;;;;4979588;28;20110;-85
2023/01/07 20:59:00;;;;;;;5.65;3.03;;;;;;;;;;4960859;28;20059;-85
2023/01/07 21:01:26;;;;;;;5.93;3.30;;;;;;;;;;4979344;28;20105;-86
2023/01/07 21:03:52;;;;;;;6.15;3.72;;;;;;;;;;4982447;28;20050;-86
2023/01/07 21:06:19;;;;;;;7.07;4.00;;;;;;;;;;4983656;28;20094;-84
2023/01/07 21:08:46;;;;;;;7.43;4.22;;;;;;;;;;4961684;28;20023;-85
2023/01/07 21:11:13;;;;;;;6.50;4.40;;;;;;;;;;4983165;28;20121;-85
2023/01/07 21:13:40;;;;;;;7.65;4.25;;;;;;;;;;4964214;28;20088;-85
2023/01/07 21:16:06;;;;;;;7.13;4.50;;;;;;;;;;4979545;28;20019;-84
2023/01/07 21:18:32;;;;;;;8.15;4.25;;;;;;;;;;4966292;29;20023;-84
2023/01/07 21:20:59;;;;;;;9.68;4.65;;;;;;;;;;4975158;28;20076;-85
2023/01/07 21:23:25;;;;;;;8.75;4.45;;;;;;;;;;4942296;28;20027;-84
2023/01/07 21:25:51;;;;;;;8.75;5.13;;;;;;;;;;4959247;29;20371;-85
2023/01/07 21:28:17;;;;;;;10.45;4.45;;;;;;;;;;4942390;29;20027;-84
2023/01/07 21:30:43;;;;;;;6.80;4.53;;;;;;;;;;4959128;28;20039;-84
2023/01/07 21:33:09;;;;;;;7.97;4.70;;;;;;;;;;4946590;28;20063;-85
2023/01/07 21:35:39;;;;;;;7.65;4.72;;;;;;;;;;4977803;28;20027;-86
2023/01/07 21:38:05;;;;;;;9.20;4.07;;;;;;;;;;4959628;28;20172;-86
2023/01/07 21:40:31;;;;;;;8.25;4.55;;;;;;;;;;4941822;29;20031;-85
2023/01/07 21:42:57;;;;;;;11.00;4.72;;;;;;;;;;4941490;29;20035;-85
2023/01/07 21:45:23;;;;;;;8.20;4.72;;;;;;;;;;4942741;29;20046;-86
2023/01/07 21:47:49;;;;;;;8.75;4.68;;;;;;;;;;4942354;29;20027;-86
2023/01/07 21:50:15;;;;;;;8.63;4.50;;;;;;;;;;4960323;28;20114;-84
2023/01/07 21:52:41;;;;;;;6.75;3.95;;;;;;;;;;4962417;28;20057;-86
2023/01/07 21:55:08;;;;;;;6.70;4.30;;;;;;;;;;4978460;28;20027;-86
2023/01/07 21:57:35;;;;;;;6.10;4.05;;;;;;;;;;4963358;28;20133;-86
2023/01/07 22:00:01;;;;;;;6.75;3.50;;;;;;;;;;4948324;29;20063;-85
2023/01/07 22:02:28;;;;;;;5.68;3.42;;;;;;;;;;4966249;28;20085;-84
2023/01/07 22:04:54;;;;;;;7.32;3.70;;;;;;;;;;4983540;28;20433;-84
2023/01/07 22:07:20;;;;;;;5.78;3.10;;;;;;;;;;4982350;28;20023;-85
2023/01/07 22:09:46;;;;;;;4.90;3.10;;;;;;;;;;4971391;28;20027;-86
2023/01/07 22:12:13;;;;;;;6.00;3.60;;;;;;;;;;4949610;29;20024;-86
2023/01/07 22:14:39;;;;;;;7.15;3.75;;;;;;;;;;4947735;29;20031;-86
2023/01/07 22:17:05;;;;;;;5.03;3.03;;;;;;;;;;4947891;29;20027;-85
2023/01/07 22:19:31;;;;;;;4.95;3.50;;;;;;;;;;4959582;28;20034;-83
2023/01/07 22:21:58;;;;;;;8.05;3.75;;;;;;;;;;4981699;28;20222;-84
2023/01/07 22:24:24;;;;;;;6.53;3.67;;;;;;;;;;4979607;28;20165;-86
2023/01/07 22:26:51;;;;;;;6.32;3.53;;;;;;;;;;4945305;29;20034;-86
2023/01/07 22:29:17;;;;;;;5.03;3.28;;;;;;;;;;4979885;28;20027;-85
2023/01/07 22:31:49;;;;;;;6.25;3.47;;;;;;;;;;4981956;28;20128;-85
2023/01/07 22:34:15;;;;;;;7.07;4.03;;;;;;;;;;4976993;28;20023;-85
2023/01/07 22:36:58;;;;;;;7.30;3.63;;;;;;;;;;4984362;28;20034;-85
2023/01/07 22:39:52;;;;;;;7.93;4.03;;;;;;;;;;4991990;28;20011;-85
2023/01/07 22:42:39;;;;;;;7.30;3.67;;;;;;;;;;4981548;28;20058;-86
2023/01/07 22:45:08;;;;;;;6.35;3.65;;;;;;;;;;4982244;28;20054;-86
2023/01/07 22:47:37;;;;;;;5.47;3.28;;;;;;;;;;4964559;29;20086;-86
2023/01/07 22:50:04;;;;;;;6.28;3.47;;;;;;;;;;4966711;28;20058;-85
2023/01/07 22:52:30;;;;;;;8.05;4.22;;;;;;;;;;4964575;28;20039;-85
2023/01/07 22:54:57;;;;;;;6.75;3.83;;;;;;;;;;4962241;28;20027;-85
2023/01/07 22:57:23;;;;;;;5.97;3.72;;;;;;;;;;4980810;28;20035;-85
2023/01/07 22:59:49;;;;;;;8.65;4.40;;;;;;;;;;4981101;28;20027;-85
2023/01/07 23:02:15;;;;;;;8.70;3.58;;;;;;;;;;4962995;28;20037;-84
2023/01/07 23:04:41;;;;;;;6.82;4.18;;;;;;;;;;4980175;28;20151;-84
2023/01/07 23:07:07;;;;;;;6.47;3.70;;;;;;;;;;4962373;28;20435;-84
2023/01/07 23:09:33;;;;;;;7.20;4.13;;;;;;;;;;4953771;28;20034;-85
2023/01/07 23:12:00;;;;;;;7.13;3.47;;;;;;;;;;4945702;28;20393;-84
2023/01/07 23:14:27;;;;;;;5.03;2.95;;;;;;;;;;4943083;29;20107;-85
2023/01/07 23:16:53;;;;;;;5.70;3.63;;;;;;;;;;4961215;28;20033;-85
2023/01/07 23:19:20;;;;;;;7.22;2.95;;;;;;;;;;4950129;29;20031;-85
2023/01/07 23:21:47;;;;;;;4.57;3.20;;;;;;;;;;4943031;29;20031;-84
2023/01/07 23:24:13;;;;;;;4.43;3.25;;;;;;;;;;4960140;29;20090;-83
2023/01/07 23:26:40;;;;;;;5.32;3.20;;;;;;;;;;4964608;29;20083;-84
2023/01/07 23:29:06;;;;;;;4.97;3.28;;;;;;;;;;4977807;28;20527;-84
2023/01/07 23:31:33;;;;;;;5.65;3.53;;;;;;;;;;4986851;28;20031;-83
2023/01/07 23:33:59;;;;;;;5.00;3.22;;;;;;;;;;4978432;28;20031;-85
2023/01/07 23:36:25;;;;;;;6.00;3.42;;;;;;;;;;4963373;28;20457;-83
2023/01/07 23:38:52;;;;;;;5.20;3.00;;;;;;;;;;4962488;28;20038;-84
2023/01/07 23:41:18;;;;;;;6.13;3.40;;;;;;;;;;4957540;28;20029;-83
2023/01/07 23:43:44;;;;;;;5.65;3.17;;;;;;;;;;4960640;29;20019;-84
2023/01/07 23:46:10;;;;;;;3.45;2.65;;;;;;;;;;4959857;29;20035;-84
2023/01/07 23:48:37;;;;;;;4.53;2.70;;;;;;;;;;4962650;28;20022;-85
2023/01/07 23:51:07;;;;;;;4.25;2.72;;;;;;;;;;4950430;29;20027;-84
2023/01/07 23:53:34;;;;;;;4.80;2.78;;;;;;;;;;4967364;28;20038;-84
2023/01/07 23:56:00;;;;;;;4.10;2.80;;;;;;;;;;4967186;29;20024;-84
2023/01/07 23:58:26;;;;;;;4.60;2.70;;;;;;;;;;4953510;28;20027;-85
